CheckWX is a tool to help pilots better visualize weather data.  It is not intended as a substitute for an official pre-flight weather briefing.

00:19:32 UTC

GVBA METAR
Rabil Airport
Rabil, Cape Verde
Current

5 hours ago

GVBA 181900Z 01014KT 9999 SCT015 27/24 Q1012 NOSIG
Observed
Oct-18 @ 19:00 UTC
Wind
  • 010° at 14 KTS
Visibility
10,000+ meters
Flight Rules
VFR
Cloud Levels
  • Scattered at 1,500' AGL
Temperature
27°C / 81°F
Dewpoint
24°C / 75°F
Heat Index
31°C / 87°F
Humidity
84%
Altimeter
29.88" Hg
Pressure
1011.92 hPa
Previous

6 hours ago

GVBA 181800Z 02017KT 9999 SCT015 28/24 Q1012 NOSIG
Observed
Oct-18 @ 18:00 UTC
Wind
  • 020° at 17 KTS
Visibility
10,000+ meters
Flight Rules
VFR
Cloud Levels
  • Scattered at 1,500' AGL
Temperature
28°C / 82°F
Dewpoint
24°C / 75°F
Heat Index
32°C / 89°F
Humidity
79%
Altimeter
29.88" Hg
Pressure
1011.92 hPa
Previous

7 hours ago

GVBA 181700Z 02016KT 9999 SCT015 29/24 Q1012 NOSIG
Observed
Oct-18 @ 17:00 UTC
Wind
  • 020° at 16 KTS
Visibility
10,000+ meters
Flight Rules
VFR
Cloud Levels
  • Scattered at 1,500' AGL
Temperature
29°C / 84°F
Dewpoint
24°C / 75°F
Heat Index
33°C / 92°F
Humidity
74%
Altimeter
29.88" Hg
Pressure
1011.92 hPa